Time;durP1;ratioP1;P1;durP2;ratioP2;P2;SDS_P1;SDS_P2;PMS_P1;PMS_P2;Temp;Humidity;BMP_temperature;BMP_pressure;BME280_temperature;BME280_humidity;BME280_pressure;Samples;Min_cycle;Max_cycle;Signal;HPM_P1;HPM_P2
2023/01/15 00:01:35;;;;;;;32.77;20.33;;;;;;;;;;6246924;23;19997;-70
2023/01/15 00:04:02;;;;;;;32.33;21.50;;;;;;;;;;6247024;23;20379;-70
2023/01/15 00:06:28;;;;;;;28.37;19.33;;;;;;;;;;6246904;23;20079;-69
2023/01/15 00:08:55;;;;;;;29.17;17.90;;;;;;;;;;6246758;23;20000;-69
2023/01/15 00:11:21;;;;;;;29.13;17.47;;;;;;;;;;6247038;23;20012;-70
2023/01/15 00:13:47;;;;;;;26.97;17.87;;;;;;;;;;6246881;23;20024;-70
2023/01/15 00:16:15;;;;;;;28.07;18.10;;;;;;;;;;6246840;23;20008;-70
2023/01/15 00:18:42;;;;;;;26.57;17.87;;;;;;;;;;6219948;23;20027;-71
2023/01/15 00:21:10;;;;;;;84.37;48.23;;;;;;;;;;6219882;23;20008;-70
2023/01/15 00:29:07;;;;;;;36.53;22.60;;;;;;;;;;6246279;23;20065;-71
2023/01/15 00:31:34;;;;;;;32.50;21.90;;;;;;;;;;6246428;23;20047;-71
2023/01/15 00:34:00;;;;;;;36.10;23.93;;;;;;;;;;6246473;23;20003;-70
2023/01/15 00:36:27;;;;;;;38.00;23.87;;;;;;;;;;6246355;23;20000;-70
2023/01/15 00:38:53;;;;;;;38.70;23.33;;;;;;;;;;6219634;23;20408;-70
2023/01/15 00:41:19;;;;;;;37.80;22.47;;;;;;;;;;6246887;23;20059;-70
2023/01/15 00:43:45;;;;;;;39.63;23.47;;;;;;;;;;6246601;23;20007;-70
2023/01/15 00:46:11;;;;;;;31.97;20.40;;;;;;;;;;6246516;23;20004;-70
2023/01/15 00:48:38;;;;;;;29.30;19.07;;;;;;;;;;6246656;23;20330;-70
2023/01/15 00:51:04;;;;;;;30.80;19.17;;;;;;;;;;6219510;23;20434;-70
2023/01/15 00:53:31;;;;;;;31.33;19.70;;;;;;;;;;6246686;23;20075;-70
2023/01/15 00:55:57;;;;;;;30.20;19.03;;;;;;;;;;6246655;23;20446;-70
2023/01/15 00:58:23;;;;;;;35.40;20.50;;;;;;;;;;6246403;23;20369;-70
2023/01/15 01:00:54;;;;;;;32.83;20.60;;;;;;;;;;6246800;23;20004;-70
2023/01/15 01:03:20;;;;;;;33.70;21.37;;;;;;;;;;6219313;23;20007;-70
2023/01/15 01:05:46;;;;;;;35.60;22.03;;;;;;;;;;6246215;23;20012;-70
2023/01/15 01:08:12;;;;;;;37.73;21.67;;;;;;;;;;6246214;23;20047;-70
2023/01/15 01:10:38;;;;;;;32.63;21.40;;;;;;;;;;6245735;23;20059;-70
2023/01/15 01:13:04;;;;;;;35.73;20.83;;;;;;;;;;6246344;23;20030;-69
2023/01/15 01:15:33;;;;;;;38.37;21.40;;;;;;;;;;6246457;23;20038;-70
2023/01/15 01:17:59;;;;;;;35.47;21.20;;;;;;;;;;6246490;23;20485;-70
2023/01/15 01:20:25;;;;;;;36.23;21.73;;;;;;;;;;6246335;23;20011;-70
2023/01/15 01:22:52;;;;;;;34.40;20.77;;;;;;;;;;6245811;23;20331;-70
2023/01/15 01:25:18;;;;;;;30.87;20.93;;;;;;;;;;6246388;23;20000;-70
2023/01/15 01:27:45;;;;;;;34.97;20.70;;;;;;;;;;6246125;23;20012;-70
2023/01/15 01:30:11;;;;;;;32.93;20.10;;;;;;;;;;6246015;23;20091;-70
2023/01/15 01:32:37;;;;;;;31.67;20.73;;;;;;;;;;6245789;23;20000;-70
2023/01/15 01:35:04;;;;;;;33.60;22.30;;;;;;;;;;6246301;23;19996;-70
2023/01/15 01:37:30;;;;;;;35.57;22.60;;;;;;;;;;6246227;23;20004;-70
2023/01/15 01:39:56;;;;;;;45.80;22.60;;;;;;;;;;6245959;23;20008;-70
2023/01/15 01:42:22;;;;;;;35.13;22.23;;;;;;;;;;6246121;23;20019;-70
2023/01/15 01:44:48;;;;;;;32.90;21.57;;;;;;;;;;6245918;23;20453;-70
2023/01/15 01:47:22;;;;;;;36.13;21.10;;;;;;;;;;6245952;23;20100;-70
2023/01/15 01:49:53;;;;;;;33.27;19.57;;;;;;;;;;6219188;23;20102;-70
2023/01/15 01:52:22;;;;;;;32.67;18.80;;;;;;;;;;6245864;23;20000;-70
2023/01/15 01:54:49;;;;;;;31.90;19.30;;;;;;;;;;6245731;23;20102;-70
2023/01/15 01:57:16;;;;;;;26.30;18.10;;;;;;;;;;6245601;23;20003;-70
2023/01/15 01:59:42;;;;;;;30.97;18.30;;;;;;;;;;6241929;23;20008;-70
2023/01/15 02:02:08;;;;;;;29.67;17.97;;;;;;;;;;6242215;23;20011;-70
2023/01/15 02:04:35;;;;;;;30.63;16.77;;;;;;;;;;6243291;23;20107;-69
2023/01/15 02:07:03;;;;;;;27.53;17.20;;;;;;;;;;6245382;23;20079;-70
2023/01/15 02:09:29;;;;;;;29.87;17.80;;;;;;;;;;6245856;23;20000;-70
2023/01/15 02:11:57;;;;;;;28.67;17.47;;;;;;;;;;6245840;23;20083;-70
2023/01/15 02:14:27;;;;;;;28.37;16.90;;;;;;;;;;6245367;23;20078;-70
2023/01/15 02:17:11;;;;;;;26.57;15.87;;;;;;;;;;6245630;23;20007;-70
2023/01/15 02:19:56;;;;;;;25.47;16.07;;;;;;;;;;6245621;23;20089;-70
2023/01/15 02:22:45;;;;;;;30.23;17.07;;;;;;;;;;6244378;23;20012;-70
2023/01/15 02:25:34;;;;;;;29.20;17.90;;;;;;;;;;6202992;23;20011;-70
2023/01/15 02:28:20;;;;;;;32.50;17.83;;;;;;;;;;6202248;23;20131;-70
2023/01/15 02:30:54;;;;;;;27.67;17.87;;;;;;;;;;6244759;23;20083;-70
2023/01/15 02:33:26;;;;;;;32.33;18.83;;;;;;;;;;6245494;23;20331;-70
2023/01/15 02:35:56;;;;;;;29.37;17.93;;;;;;;;;;6245083;23;20010;-70
2023/01/15 02:38:23;;;;;;;28.60;18.77;;;;;;;;;;6245300;23;20003;-70
2023/01/15 02:40:51;;;;;;;32.10;19.57;;;;;;;;;;6245358;23;20079;-70
2023/01/15 02:43:18;;;;;;;30.37;20.63;;;;;;;;;;6245001;23;20346;-70
2023/01/15 02:45:47;;;;;;;32.27;20.37;;;;;;;;;;6245468;23;20004;-70
2023/01/15 02:48:14;;;;;;;37.17;21.40;;;;;;;;;;6218286;23;20023;-70
2023/01/15 02:50:43;;;;;;;35.43;21.40;;;;;;;;;;6245026;23;20442;-70
2023/01/15 02:53:12;;;;;;;31.77;20.33;;;;;;;;;;6245540;23;20001;-70
2023/01/15 02:55:41;;;;;;;31.80;19.53;;;;;;;;;;6245550;23;20349;-70
2023/01/15 02:58:10;;;;;;;36.17;21.53;;;;;;;;;;6245412;23;19996;-71
2023/01/15 03:00:39;;;;;;;33.13;21.33;;;;;;;;;;6245437;23;20050;-69
2023/01/15 03:03:05;;;;;;;29.67;19.13;;;;;;;;;;6245707;23;20001;-70
2023/01/15 03:05:35;;;;;;;30.80;18.73;;;;;;;;;;6245598;23;20366;-70
2023/01/15 03:08:02;;;;;;;29.50;19.33;;;;;;;;;;6245764;23;20399;-70
2023/01/15 03:10:48;;;;;;;30.67;19.67;;;;;;;;;;6245546;23;20054;-70
2023/01/15 03:13:16;;;;;;;35.23;20.47;;;;;;;;;;6244424;23;20007;-70
2023/01/15 03:18:32;;;;;;;31.60;20.23;;;;;;;;;;6245167;23;20003;-70
2023/01/15 03:21:01;;;;;;;29.80;19.80;;;;;;;;;;6218185;23;20004;-70
2023/01/15 03:23:29;;;;;;;29.13;18.17;;;;;;;;;;6245300;23;20008;-69
2023/01/15 03:25:55;;;;;;;29.73;19.23;;;;;;;;;;6245488;23;20007;-70
2023/01/15 03:28:24;;;;;;;29.83;20.53;;;;;;;;;;6245096;23;20012;-70
2023/01/15 03:30:50;;;;;;;28.23;19.27;;;;;;;;;;6244944;23;20020;-70
2023/01/15 03:33:17;;;;;;;28.53;16.83;;;;;;;;;;6245361;23;20031;-70
2023/01/15 03:35:45;;;;;;;29.60;17.33;;;;;;;;;;6247344;23;20079;-70
2023/01/15 03:38:16;;;;;;;25.73;17.27;;;;;;;;;;6247177;23;20003;-70
2023/01/15 03:40:48;;;;;;;23.43;15.07;;;;;;;;;;6247220;23;20004;-70
2023/01/15 03:46:03;;;;;;;23.47;15.30;;;;;;;;;;6247311;23;20425;-70
2023/01/15 03:48:58;;;;;;;24.90;15.27;;;;;;;;;;6247279;23;20027;-70
2023/01/15 03:51:36;;;;;;;24.80;14.40;;;;;;;;;;6226865;23;20012;-69
2023/01/15 03:54:06;;;;;;;21.60;13.63;;;;;;;;;;6247056;23;20004;-70
2023/01/15 03:56:38;;;;;;;21.57;12.83;;;;;;;;;;6247097;23;20075;-70
2023/01/15 03:59:09;;;;;;;18.13;11.07;;;;;;;;;;6247000;23;20039;-70
2023/01/15 04:01:37;;;;;;;17.80;10.13;;;;;;;;;;6247198;23;20000;-70
2023/01/15 04:04:04;;;;;;;15.97;10.27;;;;;;;;;;6247158;23;20000;-70
2023/01/15 04:06:31;;;;;;;14.60;10.00;;;;;;;;;;6247003;23;20075;-70
2023/01/15 04:08:58;;;;;;;16.90;10.33;;;;;;;;;;6246491;23;20000;-70
2023/01/15 04:11:25;;;;;;;15.30;10.23;;;;;;;;;;6247006;23;20095;-71
2023/01/15 04:13:53;;;;;;;16.73;10.43;;;;;;;;;;6246786;23;20067;-70
2023/01/15 04:16:23;;;;;;;15.47;9.93;;;;;;;;;;6246858;23;20060;-70
2023/01/15 04:18:49;;;;;;;16.53;10.90;;;;;;;;;;6246743;23;20008;-70
2023/01/15 04:21:15;;;;;;;16.50;10.50;;;;;;;;;;6219778;23;20004;-70
2023/01/15 04:23:41;;;;;;;14.30;9.87;;;;;;;;;;6246333;23;20007;-70
2023/01/15 04:26:07;;;;;;;22.20;10.77;;;;;;;;;;6246452;23;20004;-71
2023/01/15 04:28:33;;;;;;;17.67;11.63;;;;;;;;;;6246582;23;20015;-69
2023/01/15 04:31:00;;;;;;;17.43;11.00;;;;;;;;;;6219705;23;20019;-70
2023/01/15 04:33:26;;;;;;;18.40;11.43;;;;;;;;;;6246175;23;20000;-70
2023/01/15 04:35:52;;;;;;;19.17;10.83;;;;;;;;;;6246409;23;20027;-70
2023/01/15 04:38:18;;;;;;;16.80;11.70;;;;;;;;;;6246490;23;20003;-70
2023/01/15 04:46:13;;;;;;;17.93;10.80;;;;;;;;;;6246210;23;20091;-70
2023/01/15 04:48:40;;;;;;;15.73;10.40;;;;;;;;;;6246261;23;20000;-70
2023/01/15 04:51:06;;;;;;;16.47;10.80;;;;;;;;;;6246558;23;20008;-70
2023/01/15 04:53:32;;;;;;;16.30;9.87;;;;;;;;;;6246133;23;20011;-70
2023/01/15 04:56:05;;;;;;;16.50;9.30;;;;;;;;;;6246110;23;20011;-70
2023/01/15 04:58:32;;;;;;;16.30;9.50;;;;;;;;;;6246382;23;20372;-70
2023/01/15 05:00:59;;;;;;;14.87;9.70;;;;;;;;;;6244735;23;20008;-70
2023/01/15 05:03:29;;;;;;;16.77;9.90;;;;;;;;;;6246410;23;20000;-70
2023/01/15 05:05:55;;;;;;;14.67;9.43;;;;;;;;;;6246527;23;20323;-70
2023/01/15 05:08:21;;;;;;;13.57;8.90;;;;;;;;;;6244626;23;20004;-70
2023/01/15 05:10:47;;;;;;;13.43;8.83;;;;;;;;;;6245554;23;20012;-69
2023/01/15 05:13:13;;;;;;;13.77;9.00;;;;;;;;;;6245860;23;20004;-70
2023/01/15 05:15:41;;;;;;;14.37;9.67;;;;;;;;;;6244676;23;20008;-70
2023/01/15 05:18:07;;;;;;;16.03;9.17;;;;;;;;;;6246101;23;20008;-70
2023/01/15 05:20:37;;;;;;;12.20;8.97;;;;;;;;;;6246218;23;20007;-70
2023/01/15 05:23:03;;;;;;;13.23;7.97;;;;;;;;;;6246310;23;20004;-70
2023/01/15 05:25:29;;;;;;;12.53;8.00;;;;;;;;;;6246343;23;20011;-70
2023/01/15 05:27:55;;;;;;;10.00;6.93;;;;;;;;;;6245705;23;20048;-69
2023/01/15 05:30:21;;;;;;;12.00;7.60;;;;;;;;;;6246133;23;20057;-70
2023/01/15 05:32:47;;;;;;;11.77;7.73;;;;;;;;;;6246063;23;20004;-70
2023/01/15 05:35:13;;;;;;;10.53;6.63;;;;;;;;;;6246321;23;20381;-70
2023/01/15 05:37:39;;;;;;;9.37;6.17;;;;;;;;;;6245837;23;20022;-70
2023/01/15 05:40:05;;;;;;;11.50;7.00;;;;;;;;;;6245572;23;20051;-70
2023/01/15 05:42:31;;;;;;;9.83;5.80;;;;;;;;;;6246032;23;20007;-70
2023/01/15 05:44:57;;;;;;;8.60;5.80;;;;;;;;;;6245698;23;20075;-70
2023/01/15 05:47:23;;;;;;;8.43;5.73;;;;;;;;;;6245547;23;20071;-70
2023/01/15 05:49:49;;;;;;;7.83;5.27;;;;;;;;;;6245663;23;20427;-70
2023/01/15 05:52:15;;;;;;;10.33;5.23;;;;;;;;;;6245336;23;20065;-69
2023/01/15 05:54:41;;;;;;;9.17;5.37;;;;;;;;;;6245370;23;19996;-71
2023/01/15 05:57:10;;;;;;;8.90;5.70;;;;;;;;;;6244745;23;20043;-71
2023/01/15 05:59:36;;;;;;;10.00;5.40;;;;;;;;;;6245562;23;20050;-70
2023/01/15 06:02:02;;;;;;;8.33;5.87;;;;;;;;;;6245879;23;20415;-70
2023/01/15 06:04:28;;;;;;;10.57;6.73;;;;;;;;;;6245890;23;20041;-70
2023/01/15 06:06:54;;;;;;;10.30;7.37;;;;;;;;;;6245556;23;20423;-70
2023/01/15 06:09:21;;;;;;;9.90;6.90;;;;;;;;;;6245703;23;20003;-70
2023/01/15 06:11:48;;;;;;;13.53;7.63;;;;;;;;;;6245574;23;20016;-70
2023/01/15 06:14:14;;;;;;;12.33;7.43;;;;;;;;;;6245308;23;19996;-70
2023/01/15 06:16:40;;;;;;;12.43;7.87;;;;;;;;;;6245485;23;20335;-71
2023/01/15 06:19:07;;;;;;;11.93;8.47;;;;;;;;;;6246064;23;20046;-70
2023/01/15 06:21:34;;;;;;;14.23;8.30;;;;;;;;;;6245759;23;20434;-70
2023/01/15 06:24:00;;;;;;;15.43;8.33;;;;;;;;;;6245631;23;20378;-71
2023/01/15 06:26:26;;;;;;;12.70;7.40;;;;;;;;;;6245318;23;20007;-70
2023/01/15 06:28:52;;;;;;;11.60;7.53;;;;;;;;;;6245428;23;20003;-69
2023/01/15 06:31:20;;;;;;;13.10;8.80;;;;;;;;;;6245391;23;20043;-70
2023/01/15 06:33:46;;;;;;;15.17;9.47;;;;;;;;;;6245805;23;20431;-70
2023/01/15 06:36:13;;;;;;;11.93;7.77;;;;;;;;;;6245719;23;20308;-70
2023/01/15 06:38:40;;;;;;;57.23;31.03;;;;;;;;;;6245492;23;20000;-70
2023/01/15 06:49:22;;;;;;;22.10;13.03;;;;;;;;;;6245742;23;20051;-70
2023/01/15 06:51:48;;;;;;;21.77;13.13;;;;;;;;;;6245469;23;20054;-70
2023/01/15 06:54:14;;;;;;;29.50;17.27;;;;;;;;;;6245354;23;20008;-70
2023/01/15 06:56:40;;;;;;;29.47;17.63;;;;;;;;;;6245474;23;20031;-70
2023/01/15 06:59:06;;;;;;;16.07;10.73;;;;;;;;;;6245168;23;20007;-70
2023/01/15 07:01:32;;;;;;;12.57;8.60;;;;;;;;;;6245395;23;20000;-70
2023/01/15 07:03:58;;;;;;;11.03;8.13;;;;;;;;;;6244745;23;20011;-70
2023/01/15 07:06:24;;;;;;;9.60;7.30;;;;;;;;;;6244669;23;20449;-70
2023/01/15 07:08:50;;;;;;;11.40;7.30;;;;;;;;;;6245370;23;20000;-70
2023/01/15 07:11:16;;;;;;;14.90;7.50;;;;;;;;;;6246630;23;20047;-70
2023/01/15 07:13:42;;;;;;;13.23;8.90;;;;;;;;;;6246987;23;20080;-71
2023/01/15 07:16:25;;;;;;;14.80;9.70;;;;;;;;;;6246613;23;20048;-70
2023/01/15 07:18:51;;;;;;;12.23;8.20;;;;;;;;;;6246595;23;20000;-71
2023/01/15 07:21:17;;;;;;;13.30;8.23;;;;;;;;;;6244995;23;20043;-73
2023/01/15 07:23:43;;;;;;;14.00;7.70;;;;;;;;;;6247117;23;20501;-70
2023/01/15 07:26:09;;;;;;;10.27;7.20;;;;;;;;;;6247661;23;20000;-70
2023/01/15 07:28:35;;;;;;;10.43;6.87;;;;;;;;;;6246781;23;20004;-70
2023/01/15 07:33:47;;;;;;;15.40;5.87;;;;;;;;;;6246811;23;20087;-70
2023/01/15 07:36:14;;;;;;;9.40;6.30;;;;;;;;;;6247259;23;20000;-71
2023/01/15 07:38:40;;;;;;;8.47;5.90;;;;;;;;;;6247146;23;20024;-70
2023/01/15 07:52:04;;;;;;;19.23;11.17;;;;;;;;;;6246102;23;20027;-70
2023/01/15 07:54:30;;;;;;;9.73;6.90;;;;;;;;;;6246251;23;20051;-70
2023/01/15 07:56:56;;;;;;;9.10;6.27;;;;;;;;;;6246291;23;20424;-71
2023/01/15 07:59:23;;;;;;;16.20;8.67;;;;;;;;;;6244349;23;20316;-70
2023/01/15 08:01:50;;;;;;;16.97;8.80;;;;;;;;;;6246134;23;20062;-71
2023/01/15 08:04:16;;;;;;;12.47;8.67;;;;;;;;;;6246202;23;20019;-71
2023/01/15 08:06:42;;;;;;;15.70;9.97;;;;;;;;;;6246717;23;20004;-72
2023/01/15 08:09:08;;;;;;;17.50;10.97;;;;;;;;;;6246346;23;20006;-70
2023/01/15 08:17:03;;;;;;;16.37;10.60;;;;;;;;;;6242776;23;20038;-71
2023/01/15 08:19:29;;;;;;;11.57;8.03;;;;;;;;;;6242960;23;20047;-69
2023/01/15 08:22:00;;;;;;;13.77;8.10;;;;;;;;;;6243340;23;19996;-68
2023/01/15 08:24:27;;;;;;;13.07;7.37;;;;;;;;;;6245537;23;20028;-72
2023/01/15 08:26:53;;;;;;;11.53;7.47;;;;;;;;;;6245422;23;20071;-72
2023/01/15 08:29:19;;;;;;;11.70;7.57;;;;;;;;;;6243317;23;20012;-72
2023/01/15 08:31:45;;;;;;;11.83;8.23;;;;;;;;;;6245015;23;20087;-74
2023/01/15 08:34:11;;;;;;;16.93;12.17;;;;;;;;;;6246277;23;20004;-72
2023/01/15 08:36:37;;;;;;;33.20;16.73;;;;;;;;;;6245855;23;20008;-73
2023/01/15 08:39:04;;;;;;;24.47;15.73;;;;;;;;;;6218200;23;20089;-73
2023/01/15 08:41:30;;;;;;;34.03;20.43;;;;;;;;;;6242851;23;20465;-73
2023/01/15 08:43:56;;;;;;;18.13;12.00;;;;;;;;;;6242857;23;20004;-72
2023/01/15 08:46:22;;;;;;;14.63;9.90;;;;;;;;;;6246035;23;20414;-72
2023/01/15 08:48:48;;;;;;;17.57;10.83;;;;;;;;;;6246148;23;20000;-70
2023/01/15 08:51:14;;;;;;;16.57;10.07;;;;;;;;;;6245996;23;20008;-70
2023/01/15 08:53:40;;;;;;;16.73;10.63;;;;;;;;;;6246490;23;20004;-70
2023/01/15 08:56:17;;;;;;;18.07;10.57;;;;;;;;;;6246603;23;20355;-71
2023/01/15 08:59:15;;;;;;;20.50;10.80;;;;;;;;;;6246144;23;20358;-73
2023/01/15 09:01:41;;;;;;;15.73;9.73;;;;;;;;;;6246789;23;20012;-72
2023/01/15 09:04:07;;;;;;;13.50;8.63;;;;;;;;;;6246233;23;20370;-72
2023/01/15 09:06:33;;;;;;;14.17;8.93;;;;;;;;;;6246078;23;20001;-72
2023/01/15 09:09:00;;;;;;;13.43;8.47;;;;;;;;;;6246332;23;20045;-72
2023/01/15 09:11:26;;;;;;;13.73;8.57;;;;;;;;;;6246325;23;20008;-70
2023/01/15 09:13:53;;;;;;;12.20;8.77;;;;;;;;;;6246061;23;19996;-72
2023/01/15 09:16:19;;;;;;;16.53;9.50;;;;;;;;;;6246430;23;20000;-72
2023/01/15 09:18:45;;;;;;;17.20;11.37;;;;;;;;;;6244441;23;20000;-70
2023/01/15 09:21:11;;;;;;;16.10;10.93;;;;;;;;;;6246013;23;20035;-69
2023/01/15 09:23:37;;;;;;;13.90;10.03;;;;;;;;;;6245902;23;20007;-70
2023/01/15 09:26:05;;;;;;;17.53;11.43;;;;;;;;;;6245829;23;20074;-70
2023/01/15 09:28:32;;;;;;;14.77;10.83;;;;;;;;;;6246039;23;20000;-72
2023/01/15 09:30:58;;;;;;;14.73;10.80;;;;;;;;;;6218736;23;20016;-70
2023/01/15 09:33:25;;;;;;;18.00;11.23;;;;;;;;;;6245989;23;20028;-70
2023/01/15 09:35:51;;;;;;;15.17;10.50;;;;;;;;;;6245999;23;20000;-72
2023/01/15 09:38:19;;;;;;;15.97;10.23;;;;;;;;;;6245833;23;19996;-72
2023/01/15 09:40:54;;;;;;;14.00;10.30;;;;;;;;;;6245929;23;20443;-72
2023/01/15 09:43:23;;;;;;;18.37;10.77;;;;;;;;;;6244001;23;20377;-71
2023/01/15 09:45:54;;;;;;;16.93;11.23;;;;;;;;;;6242520;23;20008;-73
2023/01/15 09:48:20;;;;;;;16.67;11.07;;;;;;;;;;6243952;23;19996;-72
2023/01/15 09:50:52;;;;;;;14.40;9.60;;;;;;;;;;6246235;23;20054;-72
2023/01/15 09:53:21;;;;;;;13.18;9.68;;;;;;;;;;6246116;23;20323;-72
2023/01/15 09:55:49;;;;;;;16.53;10.63;;;;;;;;;;6218893;23;20330;-71
2023/01/15 09:58:17;;;;;;;15.77;11.33;;;;;;;;;;6245523;23;20419;-72
2023/01/15 10:00:45;;;;;;;14.43;10.73;;;;;;;;;;6245498;23;20015;-72
2023/01/15 10:03:20;;;;;;;14.07;9.90;;;;;;;;;;6245264;23;20441;-73
2023/01/15 10:05:46;;;;;;;17.83;12.50;;;;;;;;;;6245458;23;20335;-72
2023/01/15 10:08:14;;;;;;;24.23;14.43;;;;;;;;;;6243580;23;20000;-72
2023/01/15 10:13:45;;;;;;;29.83;19.10;;;;;;;;;;6242063;23;20048;-72
2023/01/15 10:16:13;;;;;;;32.83;19.97;;;;;;;;;;6245355;23;20000;-71
2023/01/15 10:18:42;;;;;;;23.57;14.73;;;;;;;;;;6245550;23;20000;-72
2023/01/15 10:21:29;;;;;;;17.47;12.40;;;;;;;;;;6245702;23;20065;-71
2023/01/15 10:24:04;;;;;;;15.03;11.20;;;;;;;;;;6245246;23;20036;-72
2023/01/15 10:26:38;;;;;;;15.23;10.90;;;;;;;;;;6245464;23;20011;-72
2023/01/15 10:29:04;;;;;;;16.57;10.60;;;;;;;;;;6245452;23;20086;-72
2023/01/15 10:31:36;;;;;;;15.13;10.30;;;;;;;;;;6244865;23;20015;-72
2023/01/15 10:34:38;;;;;;;15.30;10.18;;;;;;;;;;6245556;23;20332;-72
2023/01/15 10:37:13;;;;;;;16.63;10.23;;;;;;;;;;6152993;23;20047;-71
2023/01/15 10:39:50;;;;;;;13.43;9.97;;;;;;;;;;6232509;23;20000;-72
2023/01/15 10:42:26;;;;;;;16.43;10.30;;;;;;;;;;6245495;23;20318;-72
2023/01/15 10:45:13;;;;;;;16.10;10.73;;;;;;;;;;6245253;23;20386;-72
2023/01/15 10:47:40;;;;;;;15.10;10.80;;;;;;;;;;6245449;23;20032;-72
2023/01/15 10:50:16;;;;;;;17.00;11.73;;;;;;;;;;6218066;23;20011;-72
2023/01/15 10:52:43;;;;;;;19.33;12.00;;;;;;;;;;6244974;23;20010;-72
2023/01/15 10:55:23;;;;;;;34.10;20.67;;;;;;;;;;6218349;23;20004;-72
2023/01/15 10:57:53;;;;;;;41.83;27.53;;;;;;;;;;6245303;23;20002;-72
2023/01/15 11:00:21;;;;;;;70.87;56.20;;;;;;;;;;6244799;23;20054;-72
2023/01/15 11:02:50;;;;;;;143.33;120.63;;;;;;;;;;6244893;23;20075;-72
2023/01/15 11:05:20;;;;;;;111.87;92.97;;;;;;;;;;6244695;23;20022;-71
2023/01/15 11:07:48;;;;;;;69.23;59.77;;;;;;;;;;6244682;23;20000;-71
2023/01/15 11:10:15;;;;;;;38.07;29.07;;;;;;;;;;6245062;23;20504;-72
2023/01/15 11:21:27;;;;;;;23.60;16.13;;;;;;;;;;6245627;23;20015;-72
2023/01/15 11:23:54;;;;;;;26.53;19.47;;;;;;;;;;6244954;23;20000;-71
2023/01/15 11:26:23;;;;;;;21.67;15.43;;;;;;;;;;6218776;23;20008;-72
2023/01/15 11:28:58;;;;;;;21.43;13.83;;;;;;;;;;6245299;23;20445;-72
2023/01/15 11:31:35;;;;;;;17.10;10.37;;;;;;;;;;6244670;23;20013;-71
2023/01/15 11:34:02;;;;;;;17.70;12.43;;;;;;;;;;6245471;23;20456;-71
2023/01/15 11:36:29;;;;;;;24.17;17.30;;;;;;;;;;6245507;23;20000;-71
2023/01/15 11:38:55;;;;;;;12.27;8.27;;;;;;;;;;6244753;23;20057;-71
2023/01/15 11:52:38;;;;;;;22.17;13.27;;;;;;;;;;6244581;23;20512;-74
2023/01/15 11:55:10;;;;;;;17.37;12.20;;;;;;;;;;6219051;23;20008;-69
2023/01/15 11:57:36;;;;;;;17.07;11.57;;;;;;;;;;6219935;23;20007;-70
2023/01/15 12:00:03;;;;;;;16.07;9.77;;;;;;;;;;6245876;23;19996;-72
2023/01/15 12:02:29;;;;;;;14.93;10.00;;;;;;;;;;6246301;23;20003;-71
2023/01/15 12:04:58;;;;;;;16.40;10.10;;;;;;;;;;6246316;23;20505;-72
2023/01/15 12:07:25;;;;;;;15.87;10.03;;;;;;;;;;6246207;23;20004;-72
2023/01/15 12:09:57;;;;;;;17.87;12.47;;;;;;;;;;6246380;23;20003;-72
2023/01/15 12:12:41;;;;;;;17.33;12.27;;;;;;;;;;6242898;23;20035;-72
2023/01/15 12:15:22;;;;;;;15.77;12.10;;;;;;;;;;6243093;23;20079;-72
2023/01/15 12:17:48;;;;;;;18.33;13.07;;;;;;;;;;6245170;23;20004;-71
2023/01/15 12:20:27;;;;;;;21.40;13.77;;;;;;;;;;6246941;23;20418;-71
2023/01/15 12:22:59;;;;;;;20.80;14.70;;;;;;;;;;6246822;23;20004;-72
2023/01/15 12:25:28;;;;;;;21.48;15.07;;;;;;;;;;6246505;23;20419;-72
2023/01/15 12:27:57;;;;;;;22.23;16.30;;;;;;;;;;6246175;23;20012;-71
2023/01/15 12:30:29;;;;;;;21.50;17.10;;;;;;;;;;6246235;23;20015;-72
2023/01/15 12:33:00;;;;;;;26.88;19.85;;;;;;;;;;6246387;23;20450;-73
2023/01/15 12:35:37;;;;;;;28.87;20.50;;;;;;;;;;6246046;23;20050;-72
2023/01/15 12:38:03;;;;;;;32.90;21.20;;;;;;;;;;6219146;23;20011;-72
2023/01/15 12:40:55;;;;;;;29.57;20.73;;;;;;;;;;6246341;23;20030;-72
2023/01/15 12:46:12;;;;;;;35.83;23.80;;;;;;;;;;6245842;23;20318;-72
2023/01/15 12:48:46;;;;;;;34.93;24.07;;;;;;;;;;6245799;23;20000;-72
2023/01/15 12:51:14;;;;;;;32.10;23.80;;;;;;;;;;6246061;23;20135;-73
2023/01/15 12:53:51;;;;;;;28.80;21.00;;;;;;;;;;6218783;23;20088;-72
2023/01/15 12:56:20;;;;;;;33.83;22.23;;;;;;;;;;6246328;23;20004;-72
2023/01/15 12:59:04;;;;;;;28.87;20.90;;;;;;;;;;6245684;23;20000;-73
2023/01/15 13:01:35;;;;;;;33.97;23.97;;;;;;;;;;6245314;23;20010;-72
2023/01/15 13:04:10;;;;;;;34.30;24.97;;;;;;;;;;6218783;23;20508;-72
2023/01/15 13:06:38;;;;;;;36.63;25.07;;;;;;;;;;6245922;23;20334;-72
2023/01/15 13:09:10;;;;;;;34.13;24.53;;;;;;;;;;6245943;23;19996;-73
2023/01/15 13:11:36;;;;;;;40.22;27.85;;;;;;;;;;6245678;23;20501;-72
2023/01/15 13:14:02;;;;;;;39.27;28.53;;;;;;;;;;6245809;23;20000;-72
2023/01/15 13:16:31;;;;;;;41.83;28.97;;;;;;;;;;6245574;23;20007;-72
2023/01/15 13:19:06;;;;;;;36.50;26.90;;;;;;;;;;6245889;23;20000;-72
2023/01/15 13:21:34;;;;;;;34.33;27.63;;;;;;;;;;6245727;23;20083;-72
2023/01/15 13:24:00;;;;;;;41.10;29.13;;;;;;;;;;6245567;23;20054;-73
2023/01/15 13:26:40;;;;;;;37.67;29.70;;;;;;;;;;6244856;23;20347;-72
2023/01/15 13:29:15;;;;;;;42.10;27.80;;;;;;;;;;6245311;23;20000;-72
2023/01/15 13:31:45;;;;;;;40.73;30.17;;;;;;;;;;6245093;23;20008;-73
2023/01/15 13:34:19;;;;;;;40.13;28.03;;;;;;;;;;6245253;23;20071;-72
2023/01/15 13:36:46;;;;;;;38.73;28.47;;;;;;;;;;6245811;23;20004;-71
2023/01/15 13:39:18;;;;;;;37.63;26.87;;;;;;;;;;6245395;23;19996;-72
2023/01/15 13:44:36;;;;;;;36.73;27.77;;;;;;;;;;6245372;23;20011;-72
2023/01/15 13:47:08;;;;;;;38.77;29.10;;;;;;;;;;6218691;23;20118;-72
2023/01/15 13:49:36;;;;;;;39.85;30.58;;;;;;;;;;6245706;23;20433;-72
2023/01/15 13:52:04;;;;;;;42.10;31.70;;;;;;;;;;6245016;23;20496;-72
2023/01/15 13:54:32;;;;;;;44.77;31.47;;;;;;;;;;6245448;23;20046;-72
2023/01/15 13:57:08;;;;;;;41.90;31.43;;;;;;;;;;6218666;23;20046;-72
2023/01/15 13:59:41;;;;;;;43.33;30.87;;;;;;;;;;6244681;23;20004;-73
2023/01/15 14:02:25;;;;;;;39.90;28.08;;;;;;;;;;6244671;23;20676;-73
2023/01/15 14:04:52;;;;;;;37.13;28.50;;;;;;;;;;6245446;23;20071;-72
2023/01/15 14:07:19;;;;;;;37.90;26.80;;;;;;;;;;6245263;23;19996;-72
2023/01/15 14:09:45;;;;;;;39.50;27.93;;;;;;;;;;6245495;23;20004;-73
2023/01/15 14:12:20;;;;;;;37.57;28.23;;;;;;;;;;6244935;23;20087;-71
2023/01/15 14:14:55;;;;;;;44.27;32.07;;;;;;;;;;6245190;23;20502;-71
2023/01/15 14:17:27;;;;;;;44.10;31.07;;;;;;;;;;6245668;23;20019;-71
2023/01/15 14:20:12;;;;;;;43.87;35.30;;;;;;;;;;6244899;23;20366;-71
2023/01/15 14:22:57;;;;;;;44.20;31.73;;;;;;;;;;6244429;23;20000;-71
2023/01/15 14:25:38;;;;;;;42.20;30.67;;;;;;;;;;6245480;23;20014;-73
2023/01/15 14:28:20;;;;;;;34.53;27.93;;;;;;;;;;6244921;23;20070;-72
2023/01/15 14:30:58;;;;;;;39.17;29.23;;;;;;;;;;6245110;23;20008;-72
2023/01/15 14:33:34;;;;;;;36.77;28.33;;;;;;;;;;6244477;23;20000;-71
2023/01/15 14:36:08;;;;;;;36.07;28.00;;;;;;;;;;6218598;23;20367;-72
2023/01/15 14:38:35;;;;;;;37.80;28.83;;;;;;;;;;6245044;23;20384;-71
2023/01/15 14:41:03;;;;;;;35.50;26.80;;;;;;;;;;6245618;23;19996;-71
2023/01/15 14:43:32;;;;;;;44.40;28.27;;;;;;;;;;6245404;23;20396;-71
2023/01/15 14:46:12;;;;;;;34.97;26.57;;;;;;;;;;6244704;23;20007;-71
2023/01/15 14:48:39;;;;;;;32.47;25.83;;;;;;;;;;6245359;23;20005;-71
2023/01/15 14:51:16;;;;;;;37.47;28.77;;;;;;;;;;6245135;23;20018;-71
2023/01/15 14:53:47;;;;;;;39.60;30.27;;;;;;;;;;6244725;23;20003;-72
2023/01/15 14:56:35;;;;;;;40.83;28.97;;;;;;;;;;6245393;23;20004;-72
2023/01/15 14:59:19;;;;;;;39.47;28.17;;;;;;;;;;6244502;23;20054;-72
2023/01/15 15:01:45;;;;;;;35.30;27.27;;;;;;;;;;6244643;23;19996;-72
2023/01/15 15:04:12;;;;;;;38.37;27.97;;;;;;;;;;6245196;23;20475;-72
2023/01/15 15:06:44;;;;;;;36.27;27.50;;;;;;;;;;6244938;23;20000;-71
2023/01/15 15:09:12;;;;;;;40.22;31.23;;;;;;;;;;6244074;23;20457;-72
2023/01/15 15:14:28;;;;;;;41.67;32.10;;;;;;;;;;6244799;23;20446;-71
2023/01/15 15:16:55;;;;;;;45.80;33.03;;;;;;;;;;6245178;23;20007;-73
2023/01/15 15:19:26;;;;;;;42.27;33.50;;;;;;;;;;6244755;23;20487;-73
2023/01/15 15:21:53;;;;;;;42.00;31.40;;;;;;;;;;6244898;23;20004;-73
2023/01/15 15:24:33;;;;;;;43.87;32.63;;;;;;;;;;6244923;23;20000;-73
2023/01/15 15:27:29;;;;;;;44.43;32.77;;;;;;;;;;6242503;23;20024;-73
2023/01/15 15:30:03;;;;;;;43.03;32.63;;;;;;;;;;6206171;23;20012;-71
2023/01/15 15:32:29;;;;;;;44.40;31.63;;;;;;;;;;6246291;23;20004;-72
2023/01/15 15:34:55;;;;;;;39.60;30.27;;;;;;;;;;6247343;23;20411;-73
2023/01/15 15:37:24;;;;;;;52.97;40.97;;;;;;;;;;6247109;23;20079;-73
2023/01/15 15:39:53;;;;;;;58.30;41.23;;;;;;;;;;6220196;23;20004;-72
2023/01/15 15:50:57;;;;;;;36.40;27.90;;;;;;;;;;6244804;23;20073;-72
2023/01/15 15:53:23;;;;;;;39.70;28.60;;;;;;;;;;6246174;23;20000;-70
2023/01/15 15:55:49;;;;;;;37.60;28.17;;;;;;;;;;6219768;23;20004;-72
2023/01/15 15:58:35;;;;;;;36.17;27.47;;;;;;;;;;6246485;23;20474;-72